sensor_id;sensor_type;location;lat;lon;timestamp;temperature;humidity
41762;DHT22;27441;50.860;0.258;2022-12-07T00:01:14;1.70;99.90
41762;DHT22;27441;50.860;0.258;2022-12-07T00:03:42;1.70;99.90
41762;DHT22;27441;50.860;0.258;2022-12-07T00:06:10;1.70;99.90
41762;DHT22;27441;50.860;0.258;2022-12-07T00:08:35;1.70;99.90
41762;DHT22;27441;50.860;0.258;2022-12-07T00:11:03;1.70;99.90
41762;DHT22;27441;50.860;0.258;2022-12-07T00:13:30;1.70;99.90
41762;DHT22;27441;50.860;0.258;2022-12-07T00:15:59;1.70;99.90
41762;DHT22;27441;50.860;0.258;2022-12-07T00:18:25;1.80;99.90
41762;DHT22;27441;50.860;0.258;2022-12-07T00:20:50;1.80;99.90
41762;DHT22;27441;50.860;0.258;2022-12-07T00:23:16;1.80;99.90
41762;DHT22;27441;50.860;0.258;2022-12-07T00:25:42;2.00;99.90
41762;DHT22;27441;50.860;0.258;2022-12-07T00:28:07;1.90;99.90
41762;DHT22;27441;50.860;0.258;2022-12-07T00:30:34;1.90;99.90
41762;DHT22;27441;50.860;0.258;2022-12-07T00:33:00;2.00;99.90
41762;DHT22;27441;50.860;0.258;2022-12-07T00:35:26;2.00;99.90
41762;DHT22;27441;50.860;0.258;2022-12-07T00:37:51;1.90;99.90
41762;DHT22;27441;50.860;0.258;2022-12-07T00:40:17;1.90;99.90
41762;DHT22;27441;50.860;0.258;2022-12-07T00:42:43;1.90;99.90
41762;DHT22;27441;50.860;0.258;2022-12-07T00:45:09;1.90;99.90
41762;DHT22;27441;50.860;0.258;2022-12-07T00:47:34;1.90;99.90
41762;DHT22;27441;50.860;0.258;2022-12-07T00:50:00;1.80;99.90
41762;DHT22;27441;50.860;0.258;2022-12-07T00:52:26;1.80;99.90
41762;DHT22;27441;50.860;0.258;2022-12-07T00:54:51;1.80;99.90
41762;DHT22;27441;50.860;0.258;2022-12-07T00:57:17;1.80;99.90
41762;DHT22;27441;50.860;0.258;2022-12-07T00:59:43;1.80;99.90
41762;DHT22;27441;50.860;0.258;2022-12-07T01:02:08;1.80;99.90
41762;DHT22;27441;50.860;0.258;2022-12-07T01:04:34;1.70;99.90
41762;DHT22;27441;50.860;0.258;2022-12-07T01:07:00;1.70;99.90
41762;DHT22;27441;50.860;0.258;2022-12-07T01:09:25;1.60;99.90
41762;DHT22;27441;50.860;0.258;2022-12-07T01:11:51;1.60;99.90
41762;DHT22;27441;50.860;0.258;2022-12-07T01:14:17;1.60;99.90
41762;DHT22;27441;50.860;0.258;2022-12-07T01:16:43;1.60;99.90
41762;DHT22;27441;50.860;0.258;2022-12-07T01:19:08;1.60;99.90
41762;DHT22;27441;50.860;0.258;2022-12-07T01:21:35;1.60;99.90
41762;DHT22;27441;50.860;0.258;2022-12-07T01:24:04;1.60;99.90
41762;DHT22;27441;50.860;0.258;2022-12-07T01:26:30;1.60;99.90
41762;DHT22;27441;50.860;0.258;2022-12-07T01:28:56;1.60;99.90
41762;DHT22;27441;50.860;0.258;2022-12-07T01:31:26;1.60;99.90
41762;DHT22;27441;50.860;0.258;2022-12-07T01:33:55;1.60;99.90
41762;DHT22;27441;50.860;0.258;2022-12-07T01:36:28;1.60;99.90
41762;DHT22;27441;50.860;0.258;2022-12-07T01:38:57;1.60;99.90
41762;DHT22;27441;50.860;0.258;2022-12-07T01:41:25;1.50;99.90
41762;DHT22;27441;50.860;0.258;2022-12-07T01:44:21;1.50;99.90
41762;DHT22;27441;50.860;0.258;2022-12-07T01:46:49;1.50;99.90
41762;DHT22;27441;50.860;0.258;2022-12-07T01:49:23;1.50;99.90
41762;DHT22;27441;50.860;0.258;2022-12-07T01:51:52;1.40;99.90
41762;DHT22;27441;50.860;0.258;2022-12-07T01:54:21;1.40;99.90
41762;DHT22;27441;50.860;0.258;2022-12-07T01:56:51;1.50;99.90
41762;DHT22;27441;50.860;0.258;2022-12-07T01:59:21;1.40;99.90
41762;DHT22;27441;50.860;0.258;2022-12-07T02:01:47;1.40;99.90
41762;DHT22;27441;50.860;0.258;2022-12-07T02:04:14;1.40;99.90
41762;DHT22;27441;50.860;0.258;2022-12-07T02:06:41;1.30;99.90
41762;DHT22;27441;50.860;0.258;2022-12-07T02:09:08;1.30;99.90
41762;DHT22;27441;50.860;0.258;2022-12-07T02:11:34;1.30;99.90
41762;DHT22;27441;50.860;0.258;2022-12-07T02:13:59;1.20;99.90
41762;DHT22;27441;50.860;0.258;2022-12-07T02:28:07;1.00;99.90
41762;DHT22;27441;50.860;0.258;2022-12-07T02:30:37;0.90;99.90
41762;DHT22;27441;50.860;0.258;2022-12-07T02:33:18;0.90;99.90
41762;DHT22;27441;50.860;0.258;2022-12-07T02:38:49;0.80;99.90
41762;DHT22;27441;50.860;0.258;2022-12-07T02:41:29;0.90;99.90
41762;DHT22;27441;50.860;0.258;2022-12-07T02:44:07;0.90;99.90
41762;DHT22;27441;50.860;0.258;2022-12-07T02:46:37;0.90;99.90
41762;DHT22;27441;50.860;0.258;2022-12-07T02:49:04;0.90;99.90
41762;DHT22;27441;50.860;0.258;2022-12-07T02:51:32;1.00;99.90
41762;DHT22;27441;50.860;0.258;2022-12-07T02:53:58;1.00;99.90
41762;DHT22;27441;50.860;0.258;2022-12-07T02:59:49;0.90;99.90
41762;DHT22;27441;50.860;0.258;2022-12-07T03:11:04;0.90;99.90
41762;DHT22;27441;50.860;0.258;2022-12-07T03:13:55;0.90;99.90
41762;DHT22;27441;50.860;0.258;2022-12-07T03:16:23;0.90;99.90
41762;DHT22;27441;50.860;0.258;2022-12-07T03:19:03;1.00;99.90
41762;DHT22;27441;50.860;0.258;2022-12-07T03:21:34;1.00;99.90
41762;DHT22;27441;50.860;0.258;2022-12-07T03:24:13;1.00;99.90
41762;DHT22;27441;50.860;0.258;2022-12-07T03:26:46;1.10;99.90
41762;DHT22;27441;50.860;0.258;2022-12-07T03:29:29;1.10;99.90
41762;DHT22;27441;50.860;0.258;2022-12-07T03:32:03;1.00;99.90
41762;DHT22;27441;50.860;0.258;2022-12-07T03:34:58;1.00;99.90
41762;DHT22;27441;50.860;0.258;2022-12-07T03:40:13;0.90;99.90
41762;DHT22;27441;50.860;0.258;2022-12-07T03:42:40;0.90;99.90
41762;DHT22;27441;50.860;0.258;2022-12-07T03:45:07;1.00;99.90
41762;DHT22;27441;50.860;0.258;2022-12-07T03:50:07;1.00;99.90
41762;DHT22;27441;50.860;0.258;2022-12-07T03:53:00;1.00;99.90
41762;DHT22;27441;50.860;0.258;2022-12-07T03:55:34;0.90;99.90
41762;DHT22;27441;50.860;0.258;2022-12-07T03:58:05;1.00;99.90
41762;DHT22;27441;50.860;0.258;2022-12-07T04:00:31;1.00;99.90
41762;DHT22;27441;50.860;0.258;2022-12-07T04:02:58;1.00;99.90
41762;DHT22;27441;50.860;0.258;2022-12-07T04:05:24;1.00;99.90
41762;DHT22;27441;50.860;0.258;2022-12-07T04:07:50;1.00;99.90
41762;DHT22;27441;50.860;0.258;2022-12-07T04:10:15;1.10;99.90
41762;DHT22;27441;50.860;0.258;2022-12-07T04:12:41;1.10;99.90
41762;DHT22;27441;50.860;0.258;2022-12-07T04:15:08;1.10;99.90
41762;DHT22;27441;50.860;0.258;2022-12-07T04:17:34;1.20;99.90
41762;DHT22;27441;50.860;0.258;2022-12-07T04:19:59;1.20;99.90
41762;DHT22;27441;50.860;0.258;2022-12-07T04:22:25;1.20;99.90
41762;DHT22;27441;50.860;0.258;2022-12-07T04:24:51;1.20;99.90
41762;DHT22;27441;50.860;0.258;2022-12-07T04:27:16;1.20;99.90
41762;DHT22;27441;50.860;0.258;2022-12-07T04:29:42;1.30;99.90
41762;DHT22;27441;50.860;0.258;2022-12-07T04:32:08;1.30;99.90
41762;DHT22;27441;50.860;0.258;2022-12-07T04:34:33;1.30;99.90
41762;DHT22;27441;50.860;0.258;2022-12-07T04:36:59;1.40;99.90
41762;DHT22;27441;50.860;0.258;2022-12-07T04:39:30;1.40;99.90
41762;DHT22;27441;50.860;0.258;2022-12-07T04:41:56;1.40;99.90
41762;DHT22;27441;50.860;0.258;2022-12-07T04:44:24;1.40;99.90
41762;DHT22;27441;50.860;0.258;2022-12-07T04:46:50;1.40;99.90
41762;DHT22;27441;50.860;0.258;2022-12-07T04:49:17;1.40;99.90
41762;DHT22;27441;50.860;0.258;2022-12-07T04:51:43;1.50;99.90
41762;DHT22;27441;50.860;0.258;2022-12-07T04:54:09;1.50;99.90
41762;DHT22;27441;50.860;0.258;2022-12-07T04:56:35;1.50;99.90
41762;DHT22;27441;50.860;0.258;2022-12-07T04:59:01;1.50;99.90
41762;DHT22;27441;50.860;0.258;2022-12-07T05:01:28;1.50;99.90
41762;DHT22;27441;50.860;0.258;2022-12-07T05:03:53;1.50;99.90
41762;DHT22;27441;50.860;0.258;2022-12-07T05:06:19;1.60;99.90
41762;DHT22;27441;50.860;0.258;2022-12-07T05:08:45;1.60;99.90
41762;DHT22;27441;50.860;0.258;2022-12-07T05:11:11;1.60;99.90
41762;DHT22;27441;50.860;0.258;2022-12-07T05:14:02;1.60;99.90
41762;DHT22;27441;50.860;0.258;2022-12-07T05:16:28;1.70;99.90
41762;DHT22;27441;50.860;0.258;2022-12-07T05:18:54;1.70;99.90
41762;DHT22;27441;50.860;0.258;2022-12-07T05:21:19;1.70;99.90
41762;DHT22;27441;50.860;0.258;2022-12-07T05:23:45;1.80;99.90
41762;DHT22;27441;50.860;0.258;2022-12-07T05:26:11;1.80;99.90
41762;DHT22;27441;50.860;0.258;2022-12-07T05:28:37;1.80;99.90
41762;DHT22;27441;50.860;0.258;2022-12-07T05:31:03;1.70;99.90
41762;DHT22;27441;50.860;0.258;2022-12-07T05:33:29;1.80;99.90
41762;DHT22;27441;50.860;0.258;2022-12-07T05:35:54;1.70;99.90
41762;DHT22;27441;50.860;0.258;2022-12-07T05:38:20;1.70;99.90
41762;DHT22;27441;50.860;0.258;2022-12-07T05:40:46;1.70;99.90
41762;DHT22;27441;50.860;0.258;2022-12-07T05:43:11;1.70;99.90
41762;DHT22;27441;50.860;0.258;2022-12-07T05:45:37;1.70;99.90
41762;DHT22;27441;50.860;0.258;2022-12-07T05:48:03;1.80;99.90
41762;DHT22;27441;50.860;0.258;2022-12-07T05:50:28;1.80;99.90
41762;DHT22;27441;50.860;0.258;2022-12-07T05:52:54;1.80;99.90
41762;DHT22;27441;50.860;0.258;2022-12-07T05:55:20;1.80;99.90
41762;DHT22;27441;50.860;0.258;2022-12-07T05:57:46;1.80;99.90
41762;DHT22;27441;50.860;0.258;2022-12-07T06:00:32;1.70;99.90
41762;DHT22;27441;50.860;0.258;2022-12-07T06:02:57;1.70;99.90
41762;DHT22;27441;50.860;0.258;2022-12-07T06:05:23;1.70;99.90
41762;DHT22;27441;50.860;0.258;2022-12-07T06:07:49;1.60;99.90
41762;DHT22;27441;50.860;0.258;2022-12-07T06:10:15;1.60;99.90
41762;DHT22;27441;50.860;0.258;2022-12-07T06:12:41;1.60;99.90
41762;DHT22;27441;50.860;0.258;2022-12-07T06:15:09;1.60;99.90
41762;DHT22;27441;50.860;0.258;2022-12-07T06:17:36;1.60;99.90
41762;DHT22;27441;50.860;0.258;2022-12-07T06:20:03;1.50;99.90
41762;DHT22;27441;50.860;0.258;2022-12-07T06:22:29;1.50;99.90
41762;DHT22;27441;50.860;0.258;2022-12-07T06:24:54;1.60;99.90
41762;DHT22;27441;50.860;0.258;2022-12-07T06:27:20;1.60;99.90
41762;DHT22;27441;50.860;0.258;2022-12-07T06:29:46;1.70;99.90
41762;DHT22;27441;50.860;0.258;2022-12-07T06:32:11;1.60;99.90
41762;DHT22;27441;50.860;0.258;2022-12-07T06:34:37;1.70;99.90
41762;DHT22;27441;50.860;0.258;2022-12-07T06:37:04;1.70;99.90
41762;DHT22;27441;50.860;0.258;2022-12-07T06:39:30;1.70;99.90
41762;DHT22;27441;50.860;0.258;2022-12-07T06:41:56;1.70;99.90
41762;DHT22;27441;50.860;0.258;2022-12-07T06:44:23;1.70;99.90
41762;DHT22;27441;50.860;0.258;2022-12-07T06:46:49;1.70;99.90
41762;DHT22;27441;50.860;0.258;2022-12-07T06:49:15;1.70;99.90
41762;DHT22;27441;50.860;0.258;2022-12-07T06:51:41;1.60;99.90
41762;DHT22;27441;50.860;0.258;2022-12-07T06:54:08;1.60;99.90
41762;DHT22;27441;50.860;0.258;2022-12-07T06:56:34;1.60;99.90
41762;DHT22;27441;50.860;0.258;2022-12-07T06:59:00;1.60;99.90
41762;DHT22;27441;50.860;0.258;2022-12-07T07:01:26;1.60;99.90
41762;DHT22;27441;50.860;0.258;2022-12-07T07:03:52;1.60;99.90
41762;DHT22;27441;50.860;0.258;2022-12-07T07:06:18;1.50;99.90
41762;DHT22;27441;50.860;0.258;2022-12-07T07:08:43;1.50;99.90
41762;DHT22;27441;50.860;0.258;2022-12-07T07:11:09;1.50;99.90
41762;DHT22;27441;50.860;0.258;2022-12-07T07:13:35;1.50;99.90
41762;DHT22;27441;50.860;0.258;2022-12-07T07:16:01;1.50;99.90
41762;DHT22;27441;50.860;0.258;2022-12-07T07:18:28;1.50;99.90
41762;DHT22;27441;50.860;0.258;2022-12-07T07:20:54;1.60;99.90
41762;DHT22;27441;50.860;0.258;2022-12-07T07:23:20;1.60;99.90
41762;DHT22;27441;50.860;0.258;2022-12-07T07:25:47;1.70;99.90
41762;DHT22;27441;50.860;0.258;2022-12-07T07:28:13;1.70;99.90
41762;DHT22;27441;50.860;0.258;2022-12-07T07:30:38;1.80;99.90
41762;DHT22;27441;50.860;0.258;2022-12-07T07:33:05;1.90;99.90
41762;DHT22;27441;50.860;0.258;2022-12-07T07:35:33;2.00;99.90
41762;DHT22;27441;50.860;0.258;2022-12-07T07:37:59;2.10;99.90
41762;DHT22;27441;50.860;0.258;2022-12-07T07:40:26;2.20;99.90
41762;DHT22;27441;50.860;0.258;2022-12-07T07:42:53;2.10;99.90
41762;DHT22;27441;50.860;0.258;2022-12-07T07:45:20;2.20;99.90
41762;DHT22;27441;50.860;0.258;2022-12-07T07:47:47;2.20;99.90
41762;DHT22;27441;50.860;0.258;2022-12-07T07:50:13;2.20;99.90
41762;DHT22;27441;50.860;0.258;2022-12-07T07:52:39;2.30;99.90
41762;DHT22;27441;50.860;0.258;2022-12-07T07:55:05;2.20;99.90
41762;DHT22;27441;50.860;0.258;2022-12-07T07:57:31;2.20;99.90
41762;DHT22;27441;50.860;0.258;2022-12-07T07:59:57;2.30;99.90
41762;DHT22;27441;50.860;0.258;2022-12-07T08:02:22;2.30;99.90
41762;DHT22;27441;50.860;0.258;2022-12-07T08:04:49;2.30;99.90
41762;DHT22;27441;50.860;0.258;2022-12-07T08:07:15;2.40;99.90
41762;DHT22;27441;50.860;0.258;2022-12-07T08:09:41;2.40;99.90
41762;DHT22;27441;50.860;0.258;2022-12-07T08:12:07;2.40;99.90
41762;DHT22;27441;50.860;0.258;2022-12-07T08:14:33;2.40;99.90
41762;DHT22;27441;50.860;0.258;2022-12-07T08:17:00;2.40;99.90
41762;DHT22;27441;50.860;0.258;2022-12-07T08:19:26;2.40;99.90
41762;DHT22;27441;50.860;0.258;2022-12-07T08:21:51;2.50;99.90
41762;DHT22;27441;50.860;0.258;2022-12-07T08:24:18;2.50;99.90
41762;DHT22;27441;50.860;0.258;2022-12-07T08:26:43;2.60;99.90
41762;DHT22;27441;50.860;0.258;2022-12-07T08:29:09;2.60;99.90
41762;DHT22;27441;50.860;0.258;2022-12-07T08:31:35;2.60;99.90
41762;DHT22;27441;50.860;0.258;2022-12-07T08:34:01;2.70;99.90
41762;DHT22;27441;50.860;0.258;2022-12-07T08:36:26;2.80;99.90
41762;DHT22;27441;50.860;0.258;2022-12-07T08:38:53;2.80;99.90
41762;DHT22;27441;50.860;0.258;2022-12-07T08:41:18;2.80;99.90
41762;DHT22;27441;50.860;0.258;2022-12-07T08:43:44;2.80;99.90
41762;DHT22;27441;50.860;0.258;2022-12-07T08:49:11;2.90;99.90
41762;DHT22;27441;50.860;0.258;2022-12-07T08:51:37;2.90;99.90
41762;DHT22;27441;50.860;0.258;2022-12-07T08:54:07;2.90;99.90
41762;DHT22;27441;50.860;0.258;2022-12-07T08:56:34;2.90;99.90
41762;DHT22;27441;50.860;0.258;2022-12-07T08:59:01;3.00;99.90
41762;DHT22;27441;50.860;0.258;2022-12-07T09:01:28;3.00;99.90
41762;DHT22;27441;50.860;0.258;2022-12-07T09:03:54;3.00;99.90
41762;DHT22;27441;50.860;0.258;2022-12-07T09:06:20;3.10;99.90
41762;DHT22;27441;50.860;0.258;2022-12-07T09:08:47;3.20;99.90
41762;DHT22;27441;50.860;0.258;2022-12-07T09:11:15;3.20;99.90
41762;DHT22;27441;50.860;0.258;2022-12-07T09:13:41;3.20;99.90
41762;DHT22;27441;50.860;0.258;2022-12-07T09:16:07;3.30;99.90
41762;DHT22;27441;50.860;0.258;2022-12-07T09:18:32;3.40;99.90
41762;DHT22;27441;50.860;0.258;2022-12-07T09:20:58;3.40;99.90
41762;DHT22;27441;50.860;0.258;2022-12-07T09:23:25;3.50;99.90
41762;DHT22;27441;50.860;0.258;2022-12-07T09:25:50;3.60;99.90
41762;DHT22;27441;50.860;0.258;2022-12-07T09:28:16;3.60;99.90
41762;DHT22;27441;50.860;0.258;2022-12-07T09:30:46;3.70;99.90
41762;DHT22;27441;50.860;0.258;2022-12-07T09:33:12;3.70;99.90
41762;DHT22;27441;50.860;0.258;2022-12-07T09:35:38;3.70;99.90
41762;DHT22;27441;50.860;0.258;2022-12-07T09:38:03;3.70;99.90
41762;DHT22;27441;50.860;0.258;2022-12-07T09:40:29;3.70;99.90
41762;DHT22;27441;50.860;0.258;2022-12-07T09:42:55;3.70;99.90
41762;DHT22;27441;50.860;0.258;2022-12-07T09:45:33;3.70;99.90
41762;DHT22;27441;50.860;0.258;2022-12-07T09:48:02;3.70;99.90
41762;DHT22;27441;50.860;0.258;2022-12-07T09:50:28;3.70;99.90
41762;DHT22;27441;50.860;0.258;2022-12-07T09:53:06;3.70;99.90
41762;DHT22;27441;50.860;0.258;2022-12-07T09:55:41;3.80;99.90
41762;DHT22;27441;50.860;0.258;2022-12-07T09:58:22;3.80;99.90
41762;DHT22;27441;50.860;0.258;2022-12-07T10:00:55;3.80;99.90
41762;DHT22;27441;50.860;0.258;2022-12-07T10:03:22;3.90;99.90
41762;DHT22;27441;50.860;0.258;2022-12-07T10:05:50;3.90;99.90
41762;DHT22;27441;50.860;0.258;2022-12-07T10:08:16;3.90;99.90
41762;DHT22;27441;50.860;0.258;2022-12-07T10:10:44;4.00;99.90
41762;DHT22;27441;50.860;0.258;2022-12-07T10:13:14;4.10;99.90
41762;DHT22;27441;50.860;0.258;2022-12-07T10:18:28;4.20;99.90
41762;DHT22;27441;50.860;0.258;2022-12-07T10:21:14;4.20;99.90
41762;DHT22;27441;50.860;0.258;2022-12-07T10:24:20;4.30;99.90
41762;DHT22;27441;50.860;0.258;2022-12-07T10:29:30;4.40;99.90
41762;DHT22;27441;50.860;0.258;2022-12-07T10:32:04;4.50;99.90
41762;DHT22;27441;50.860;0.258;2022-12-07T10:37:14;4.60;99.90
41762;DHT22;27441;50.860;0.258;2022-12-07T10:39:52;4.60;99.90
41762;DHT22;27441;50.860;0.258;2022-12-07T10:44:49;4.70;99.90
41762;DHT22;27441;50.860;0.258;2022-12-07T11:01:45;4.90;99.90
41762;DHT22;27441;50.860;0.258;2022-12-07T11:07:23;5.00;99.90
41762;DHT22;27441;50.860;0.258;2022-12-07T11:10:13;5.00;99.90
41762;DHT22;27441;50.860;0.258;2022-12-07T11:21:30;5.30;99.90
41762;DHT22;27441;50.860;0.258;2022-12-07T11:24:06;5.30;99.90
41762;DHT22;27441;50.860;0.258;2022-12-07T11:37:38;5.30;99.90
41762;DHT22;27441;50.860;0.258;2022-12-07T11:40:24;5.40;99.90
41762;DHT22;27441;50.860;0.258;2022-12-07T11:42:59;5.40;99.90
41762;DHT22;27441;50.860;0.258;2022-12-07T11:45:31;5.40;99.90
41762;DHT22;27441;50.860;0.258;2022-12-07T11:48:03;5.30;99.90
41762;DHT22;27441;50.860;0.258;2022-12-07T11:51:11;5.30;99.90
41762;DHT22;27441;50.860;0.258;2022-12-07T11:53:45;5.20;99.90
41762;DHT22;27441;50.860;0.258;2022-12-07T11:56:17;5.20;99.90
41762;DHT22;27441;50.860;0.258;2022-12-07T12:06:37;5.10;99.90
41762;DHT22;27441;50.860;0.258;2022-12-07T12:09:26;5.00;99.90
41762;DHT22;27441;50.860;0.258;2022-12-07T12:12:19;5.10;99.90
41762;DHT22;27441;50.860;0.258;2022-12-07T12:15:18;5.10;99.90
41762;DHT22;27441;50.860;0.258;2022-12-07T12:20:50;5.20;99.90
41762;DHT22;27441;50.860;0.258;2022-12-07T12:23:23;5.20;99.90
41762;DHT22;27441;50.860;0.258;2022-12-07T12:25:55;5.20;99.90
41762;DHT22;27441;50.860;0.258;2022-12-07T12:28:57;5.20;99.90
41762;DHT22;27441;50.860;0.258;2022-12-07T12:33:58;5.20;99.90
41762;DHT22;27441;50.860;0.258;2022-12-07T12:39:13;5.40;99.90
41762;DHT22;27441;50.860;0.258;2022-12-07T12:46:55;5.50;99.90
41762;DHT22;27441;50.860;0.258;2022-12-07T12:55:12;5.40;99.90
41762;DHT22;27441;50.860;0.258;2022-12-07T12:57:38;5.30;99.90
41762;DHT22;27441;50.860;0.258;2022-12-07T13:00:21;5.30;99.90
41762;DHT22;27441;50.860;0.258;2022-12-07T13:02:53;5.30;99.90
41762;DHT22;27441;50.860;0.258;2022-12-07T13:05:29;5.30;99.90
41762;DHT22;27441;50.860;0.258;2022-12-07T13:08:15;5.30;99.90
41762;DHT22;27441;50.860;0.258;2022-12-07T13:10:44;5.30;99.90
41762;DHT22;27441;50.860;0.258;2022-12-07T13:18:16;5.20;99.90
41762;DHT22;27441;50.860;0.258;2022-12-07T13:28:51;5.20;99.90
41762;DHT22;27441;50.860;0.258;2022-12-07T13:31:33;5.20;99.90
41762;DHT22;27441;50.860;0.258;2022-12-07T13:34:00;5.20;99.90
41762;DHT22;27441;50.860;0.258;2022-12-07T13:36:27;5.20;99.90
41762;DHT22;27441;50.860;0.258;2022-12-07T13:38:59;5.10;99.90
41762;DHT22;27441;50.860;0.258;2022-12-07T13:41:27;5.20;99.90
41762;DHT22;27441;50.860;0.258;2022-12-07T13:47:17;5.10;99.90
41762;DHT22;27441;50.860;0.258;2022-12-07T13:49:25;5.10;99.90
41762;DHT22;27441;50.860;0.258;2022-12-07T13:51:52;5.10;99.90
41762;DHT22;27441;50.860;0.258;2022-12-07T13:54:19;5.10;99.90
41762;DHT22;27441;50.860;0.258;2022-12-07T13:56:49;5.00;99.90
41762;DHT22;27441;50.860;0.258;2022-12-07T13:59:23;5.00;99.90
41762;DHT22;27441;50.860;0.258;2022-12-07T14:01:51;5.00;99.90
41762;DHT22;27441;50.860;0.258;2022-12-07T14:06:51;5.00;99.90
41762;DHT22;27441;50.860;0.258;2022-12-07T14:09:22;4.90;99.90
41762;DHT22;27441;50.860;0.258;2022-12-07T14:11:50;4.90;99.90
41762;DHT22;27441;50.860;0.258;2022-12-07T14:14:34;4.90;99.90
41762;DHT22;27441;50.860;0.258;2022-12-07T14:17:08;4.90;99.90
41762;DHT22;27441;50.860;0.258;2022-12-07T14:22:33;4.80;99.90
41762;DHT22;27441;50.860;0.258;2022-12-07T14:25:20;4.70;99.90
41762;DHT22;27441;50.860;0.258;2022-12-07T14:27:55;4.70;99.90
41762;DHT22;27441;50.860;0.258;2022-12-07T14:30:23;4.70;99.90
41762;DHT22;27441;50.860;0.258;2022-12-07T14:32:54;4.70;99.90
41762;DHT22;27441;50.860;0.258;2022-12-07T14:35:20;4.60;99.90
41762;DHT22;27441;50.860;0.258;2022-12-07T14:37:48;4.60;99.90
41762;DHT22;27441;50.860;0.258;2022-12-07T14:40:25;4.60;99.90
41762;DHT22;27441;50.860;0.258;2022-12-07T14:43:11;4.60;99.90
41762;DHT22;27441;50.860;0.258;2022-12-07T14:45:38;4.50;99.90
41762;DHT22;27441;50.860;0.258;2022-12-07T14:48:05;4.50;99.90
41762;DHT22;27441;50.860;0.258;2022-12-07T14:50:36;4.50;99.90
41762;DHT22;27441;50.860;0.258;2022-12-07T14:53:16;4.40;99.90
41762;DHT22;27441;50.860;0.258;2022-12-07T14:55:43;4.40;99.90
41762;DHT22;27441;50.860;0.258;2022-12-07T14:58:14;4.40;99.90
41762;DHT22;27441;50.860;0.258;2022-12-07T15:00:40;4.40;99.90
41762;DHT22;27441;50.860;0.258;2022-12-07T15:03:05;4.30;99.90
41762;DHT22;27441;50.860;0.258;2022-12-07T15:05:31;4.30;99.90
41762;DHT22;27441;50.860;0.258;2022-12-07T15:07:57;4.30;99.90
41762;DHT22;27441;50.860;0.258;2022-12-07T15:10:29;4.20;99.90
41762;DHT22;27441;50.860;0.258;2022-12-07T15:13:01;4.20;99.90
41762;DHT22;27441;50.860;0.258;2022-12-07T15:15:46;4.20;99.90
41762;DHT22;27441;50.860;0.258;2022-12-07T15:18:12;4.10;99.90
41762;DHT22;27441;50.860;0.258;2022-12-07T15:20:38;4.10;99.90
41762;DHT22;27441;50.860;0.258;2022-12-07T15:23:04;4.00;99.90
41762;DHT22;27441;50.860;0.258;2022-12-07T15:25:30;4.00;99.90
41762;DHT22;27441;50.860;0.258;2022-12-07T15:27:55;4.00;99.90
41762;DHT22;27441;50.860;0.258;2022-12-07T15:30:21;4.00;99.90
41762;DHT22;27441;50.860;0.258;2022-12-07T15:32:53;4.00;99.90
41762;DHT22;27441;50.860;0.258;2022-12-07T15:35:20;3.90;99.90
41762;DHT22;27441;50.860;0.258;2022-12-07T15:37:46;3.90;99.90
41762;DHT22;27441;50.860;0.258;2022-12-07T15:40:13;3.90;99.90
41762;DHT22;27441;50.860;0.258;2022-12-07T15:42:39;3.80;99.90
41762;DHT22;27441;50.860;0.258;2022-12-07T15:45:07;3.80;99.90
41762;DHT22;27441;50.860;0.258;2022-12-07T15:47:42;3.70;99.90
41762;DHT22;27441;50.860;0.258;2022-12-07T15:50:10;3.70;99.90
41762;DHT22;27441;50.860;0.258;2022-12-07T15:52:37;3.70;99.90
41762;DHT22;27441;50.860;0.258;2022-12-07T15:55:03;3.70;99.90
41762;DHT22;27441;50.860;0.258;2022-12-07T15:57:29;3.60;99.90
41762;DHT22;27441;50.860;0.258;2022-12-07T15:59:56;3.60;99.90
41762;DHT22;27441;50.860;0.258;2022-12-07T16:02:21;3.50;99.90
41762;DHT22;27441;50.860;0.258;2022-12-07T16:04:49;3.50;99.90
41762;DHT22;27441;50.860;0.258;2022-12-07T16:07:15;3.40;99.90
41762;DHT22;27441;50.860;0.258;2022-12-07T16:09:42;3.40;99.90
41762;DHT22;27441;50.860;0.258;2022-12-07T16:12:09;3.40;99.90
41762;DHT22;27441;50.860;0.258;2022-12-07T16:14:35;3.30;99.90
41762;DHT22;27441;50.860;0.258;2022-12-07T16:17:01;3.30;99.90
41762;DHT22;27441;50.860;0.258;2022-12-07T16:19:26;3.20;99.90
41762;DHT22;27441;50.860;0.258;2022-12-07T16:21:52;3.10;99.90
41762;DHT22;27441;50.860;0.258;2022-12-07T16:24:18;3.10;99.90
41762;DHT22;27441;50.860;0.258;2022-12-07T16:26:44;3.10;99.90
41762;DHT22;27441;50.860;0.258;2022-12-07T16:29:13;3.00;99.90
41762;DHT22;27441;50.860;0.258;2022-12-07T16:31:39;2.90;99.90
41762;DHT22;27441;50.860;0.258;2022-12-07T16:34:06;2.90;99.90
41762;DHT22;27441;50.860;0.258;2022-12-07T16:36:32;2.90;99.90
41762;DHT22;27441;50.860;0.258;2022-12-07T16:38:59;2.80;99.90
41762;DHT22;27441;50.860;0.258;2022-12-07T16:41:24;2.70;99.90
41762;DHT22;27441;50.860;0.258;2022-12-07T16:43:51;2.70;99.90
41762;DHT22;27441;50.860;0.258;2022-12-07T16:46:16;2.70;99.90
41762;DHT22;27441;50.860;0.258;2022-12-07T16:48:42;2.60;99.90
41762;DHT22;27441;50.860;0.258;2022-12-07T16:51:11;2.60;99.90
41762;DHT22;27441;50.860;0.258;2022-12-07T16:53:38;2.60;99.90
41762;DHT22;27441;50.860;0.258;2022-12-07T16:56:13;2.50;99.90
41762;DHT22;27441;50.860;0.258;2022-12-07T16:58:41;2.50;99.90
41762;DHT22;27441;50.860;0.258;2022-12-07T17:01:11;2.50;99.90
41762;DHT22;27441;50.860;0.258;2022-12-07T17:03:38;2.50;99.90
41762;DHT22;27441;50.860;0.258;2022-12-07T17:06:09;2.40;99.90
41762;DHT22;27441;50.860;0.258;2022-12-07T17:08:35;2.40;99.90
41762;DHT22;27441;50.860;0.258;2022-12-07T17:11:01;2.30;99.90
41762;DHT22;27441;50.860;0.258;2022-12-07T17:13:27;2.30;99.90
41762;DHT22;27441;50.860;0.258;2022-12-07T17:16:11;2.30;99.90
41762;DHT22;27441;50.860;0.258;2022-12-07T17:18:37;2.30;99.90
41762;DHT22;27441;50.860;0.258;2022-12-07T17:21:07;2.20;99.90
41762;DHT22;27441;50.860;0.258;2022-12-07T17:23:35;2.20;99.90
41762;DHT22;27441;50.860;0.258;2022-12-07T17:26:23;2.20;99.90
41762;DHT22;27441;50.860;0.258;2022-12-07T17:28:50;2.10;99.90
41762;DHT22;27441;50.860;0.258;2022-12-07T17:31:17;2.10;99.90
41762;DHT22;27441;50.860;0.258;2022-12-07T17:33:44;2.10;99.90
41762;DHT22;27441;50.860;0.258;2022-12-07T17:36:15;2.00;99.90
41762;DHT22;27441;50.860;0.258;2022-12-07T17:38:41;2.00;99.90
41762;DHT22;27441;50.860;0.258;2022-12-07T17:41:25;2.00;99.90
41762;DHT22;27441;50.860;0.258;2022-12-07T17:44:15;1.90;99.90
41762;DHT22;27441;50.860;0.258;2022-12-07T17:46:42;1.90;99.90
41762;DHT22;27441;50.860;0.258;2022-12-07T17:49:08;1.80;99.90
41762;DHT22;27441;50.860;0.258;2022-12-07T17:51:34;1.80;99.90
41762;DHT22;27441;50.860;0.258;2022-12-07T17:54:19;1.80;99.90
41762;DHT22;27441;50.860;0.258;2022-12-07T17:56:45;1.70;99.90
41762;DHT22;27441;50.860;0.258;2022-12-07T17:59:11;1.70;99.90
41762;DHT22;27441;50.860;0.258;2022-12-07T18:01:37;1.70;99.90
41762;DHT22;27441;50.860;0.258;2022-12-07T18:04:04;1.70;99.90
41762;DHT22;27441;50.860;0.258;2022-12-07T18:06:31;1.70;99.90
41762;DHT22;27441;50.860;0.258;2022-12-07T18:08:57;1.60;99.90